UAL8207 KSFO-KRNO
Flight info
| Callsign | UAL8207 |
|---|---|
| Flight time | 0h 38m |
| Altitude | 29000 |
| Route | TRUKN2 ORRCA TARVR2 |
| Aircraft | B738/M-SDE2E3FGHIRWXY/LB1 |
Departure
| Time | 2026-05-06 03:42 |
|---|---|
| Airport | San Francisco International Airport (KSFO) |
Arrival
| Time | 2026-05-06 04:20 |
|---|---|
| Airport | Reno Tahoe International Airport (KRNO) |
| Time | Latitude | Longitude | Altitude | Speed | Heading |
|---|---|---|---|---|---|
| 2026-05-06 03:16 | 37.61964 | -122.38478 | 32 ft | 0 kts | 141° |
| 2026-05-06 03:32 | 37.61965 | -122.38479 | 32 ft | 1 kts | 141° |
| 2026-05-06 03:32 | 37.61975 | -122.38490 | 32 ft | 0 kts | 140° |
| 2026-05-06 03:32 | 37.61983 | -122.38498 | 32 ft | 2 kts | 126° |
| 2026-05-06 03:33 | 37.61988 | -122.38514 | 32 ft | 2 kts | 98° |
| 2026-05-06 03:33 | 37.61987 | -122.38533 | 32 ft | 2 kts | 70° |
| 2026-05-06 03:33 | 37.61979 | -122.38550 | 32 ft | 2 kts | 43° |
| 2026-05-06 03:33 | 37.61972 | -122.38556 | 32 ft | 1 kts | 26° |
| 2026-05-06 03:34 | 37.61968 | -122.38558 | 32 ft | 0 kts | 28° |
| 2026-05-06 03:36 | 37.61983 | -122.38548 | 32 ft | 8 kts | 28° |
| 2026-05-06 03:36 | 37.62060 | -122.38484 | 32 ft | 15 kts | 63° |
| 2026-05-06 03:36 | 37.62029 | -122.38353 | 31 ft | 18 kts | 118° |
| 2026-05-06 03:37 | 37.61972 | -122.38218 | 31 ft | 17 kts | 117° |
| 2026-05-06 03:37 | 37.61911 | -122.38072 | 30 ft | 20 kts | 118° |
| 2026-05-06 03:37 | 37.61847 | -122.37915 | 29 ft | 20 kts | 116° |
| 2026-05-06 03:37 | 37.61793 | -122.37749 | 26 ft | 20 kts | 111° |
| 2026-05-06 03:38 | 37.61744 | -122.37581 | 24 ft | 20 kts | 114° |
| 2026-05-06 03:38 | 37.61678 | -122.37420 | 21 ft | 20 kts | 116° |
| 2026-05-06 03:38 | 37.61614 | -122.37261 | 19 ft | 20 kts | 118° |
| 2026-05-06 03:38 | 37.61547 | -122.37102 | 17 ft | 20 kts | 118° |
| 2026-05-06 03:39 | 37.61479 | -122.36945 | 15 ft | 20 kts | 122° |
| 2026-05-06 03:39 | 37.61383 | -122.36810 | 14 ft | 20 kts | 129° |
| 2026-05-06 03:39 | 37.61314 | -122.36657 | 13 ft | 19 kts | 118° |
| 2026-05-06 03:39 | 37.61249 | -122.36504 | 12 ft | 19 kts | 118° |
| 2026-05-06 03:40 | 37.61188 | -122.36356 | 12 ft | 18 kts | 117° |
| 2026-05-06 03:40 | 37.61127 | -122.36211 | 12 ft | 18 kts | 118° |
| 2026-05-06 03:40 | 37.61067 | -122.36070 | 12 ft | 17 kts | 117° |
| 2026-05-06 03:40 | 37.61071 | -122.35931 | 12 ft | 16 kts | 51° |
| 2026-05-06 03:41 | 37.61160 | -122.35876 | 12 ft | 9 kts | 26° |
| 2026-05-06 03:41 | 37.61201 | -122.35899 | 12 ft | 7 kts | 299° |
| 2026-05-06 03:41 | 37.61271 | -122.36071 | 12 ft | 54 kts | 297° |
| 2026-05-06 03:41 | 37.61560 | -122.36761 | 14 ft | 121 kts | 298° |
| 2026-05-06 03:42 | 37.62043 | -122.37883 | 212 ft | 159 kts | 298° |
| 2026-05-06 03:42 | 37.62629 | -122.39101 | 818 ft | 170 kts | 301° |
| 2026-05-06 03:42 | 37.63396 | -122.40272 | 1506 ft | 179 kts | 323° |
| 2026-05-06 03:42 | 37.64533 | -122.40739 | 2262 ft | 178 kts | 358° |
| 2026-05-06 03:43 | 37.65803 | -122.40295 | 2584 ft | 203 kts | 31° |
| 2026-05-06 03:43 | 37.66794 | -122.38953 | 3121 ft | 219 kts | 60° |
| 2026-05-06 03:43 | 37.67383 | -122.37088 | 3640 ft | 233 kts | 69° |
| 2026-05-06 03:43 | 37.67921 | -122.35101 | 4150 ft | 246 kts | 69° |
| 2026-05-06 03:44 | 37.68507 | -122.33009 | 4659 ft | 260 kts | 68° |
| 2026-05-06 03:44 | 37.69136 | -122.30813 | 5365 ft | 264 kts | 68° |
| 2026-05-06 03:44 | 37.69751 | -122.28661 | 6166 ft | 265 kts | 68° |
| 2026-05-06 03:44 | 37.70372 | -122.26481 | 6966 ft | 266 kts | 68° |
| 2026-05-06 03:45 | 37.71000 | -122.24273 | 7760 ft | 268 kts | 68° |
| 2026-05-06 03:45 | 37.71716 | -122.22086 | 8541 ft | 268 kts | 59° |
| 2026-05-06 03:45 | 37.72865 | -122.20286 | 9334 ft | 267 kts | 39° |
| 2026-05-06 03:45 | 37.74383 | -122.18916 | 10140 ft | 268 kts | 33° |
| 2026-05-06 03:46 | 37.75948 | -122.17622 | 10777 ft | 277 kts | 33° |
| 2026-05-06 03:46 | 37.77553 | -122.16251 | 11571 ft | 280 kts | 34° |
| 2026-05-06 03:46 | 37.79151 | -122.14833 | 12383 ft | 282 kts | 35° |
| 2026-05-06 03:46 | 37.80756 | -122.13382 | 13148 ft | 286 kts | 36° |
| 2026-05-06 03:47 | 37.82355 | -122.11929 | 13953 ft | 288 kts | 36° |
| 2026-05-06 03:47 | 37.84008 | -122.10428 | 14751 ft | 291 kts | 36° |
| 2026-05-06 03:47 | 37.85663 | -122.08923 | 15519 ft | 294 kts | 35° |
| 2026-05-06 03:47 | 37.87317 | -122.07415 | 16238 ft | 298 kts | 35° |
| 2026-05-06 03:48 | 37.89005 | -122.05878 | 16983 ft | 301 kts | 35° |
| 2026-05-06 03:48 | 37.90701 | -122.04335 | 17719 ft | 303 kts | 35° |
| 2026-05-06 03:48 | 37.92433 | -122.02761 | 18427 ft | 306 kts | 35° |
| 2026-05-06 03:48 | 37.94154 | -122.01198 | 19110 ft | 309 kts | 35° |
| 2026-05-06 03:49 | 37.95912 | -121.99602 | 19847 ft | 309 kts | 35° |
| 2026-05-06 03:49 | 37.97660 | -121.98014 | 20474 ft | 313 kts | 35° |
| 2026-05-06 03:49 | 37.99435 | -121.96400 | 21130 ft | 315 kts | 35° |
| 2026-05-06 03:49 | 38.01222 | -121.94773 | 21799 ft | 316 kts | 35° |
| 2026-05-06 03:50 | 38.03021 | -121.93134 | 22373 ft | 319 kts | 35° |
| 2026-05-06 03:50 | 38.04833 | -121.91482 | 22979 ft | 320 kts | 35° |
| 2026-05-06 03:50 | 38.06631 | -121.89842 | 23543 ft | 323 kts | 35° |
| 2026-05-06 03:50 | 38.08473 | -121.88161 | 24105 ft | 325 kts | 35° |
| 2026-05-06 03:51 | 38.10307 | -121.86487 | 24643 ft | 328 kts | 35° |
| 2026-05-06 03:51 | 38.12162 | -121.84791 | 25240 ft | 329 kts | 35° |
| 2026-05-06 03:51 | 38.14043 | -121.83071 | 25716 ft | 333 kts | 35° |
| 2026-05-06 03:51 | 38.15938 | -121.81337 | 26245 ft | 336 kts | 35° |
| 2026-05-06 03:52 | 38.17831 | -121.79604 | 26761 ft | 338 kts | 35° |
| 2026-05-06 03:52 | 38.19762 | -121.77834 | 27279 ft | 340 kts | 35° |
| 2026-05-06 03:52 | 38.21678 | -121.76077 | 27770 ft | 342 kts | 35° |
| 2026-05-06 03:52 | 38.23624 | -121.74291 | 28270 ft | 343 kts | 34° |
| 2026-05-06 03:53 | 38.25554 | -121.72520 | 28659 ft | 347 kts | 34° |
| 2026-05-06 03:53 | 38.27548 | -121.70689 | 29011 ft | 351 kts | 35° |
| 2026-05-06 03:53 | 38.31650 | -121.66918 | 29027 ft | 373 kts | 35° |
| 2026-05-06 03:54 | 38.33779 | -121.64959 | 29026 ft | 384 kts | 35° |
| 2026-05-06 03:54 | 38.36007 | -121.62908 | 29022 ft | 395 kts | 35° |
| 2026-05-06 03:54 | 38.38260 | -121.60832 | 29023 ft | 406 kts | 34° |
| 2026-05-06 03:54 | 38.40593 | -121.58658 | 29027 ft | 415 kts | 36° |
| 2026-05-06 03:55 | 38.44451 | -121.53220 | 29028 ft | 420 kts | 58° |
| 2026-05-06 03:55 | 38.46456 | -121.46142 | 29029 ft | 427 kts | 69° |
| 2026-05-06 03:56 | 38.48028 | -121.38784 | 29030 ft | 428 kts | 70° |
| 2026-05-06 03:56 | 38.49564 | -121.31430 | 29034 ft | 427 kts | 71° |
| 2026-05-06 03:57 | 38.51064 | -121.24303 | 29036 ft | 428 kts | 70° |
| 2026-05-06 03:57 | 38.52626 | -121.16935 | 29035 ft | 428 kts | 70° |
| 2026-05-06 03:58 | 38.54130 | -121.09862 | 29036 ft | 427 kts | 70° |
| 2026-05-06 03:58 | 38.55682 | -121.02554 | 29033 ft | 426 kts | 70° |
| 2026-05-06 03:59 | 38.57233 | -120.95232 | 29034 ft | 426 kts | 70° |
| 2026-05-06 03:59 | 38.58769 | -120.87963 | 29041 ft | 426 kts | 70° |
| 2026-05-06 04:00 | 38.60300 | -120.80692 | 29047 ft | 427 kts | 70° |
| 2026-05-06 04:00 | 38.61050 | -120.77112 | 29026 ft | 413 kts | 70° |
| 2026-05-06 04:00 | 38.61787 | -120.73565 | 28845 ft | 399 kts | 70° |
| 2026-05-06 04:01 | 38.62493 | -120.70161 | 28547 ft | 389 kts | 70° |
| 2026-05-06 04:01 | 38.63174 | -120.66891 | 28121 ft | 383 kts | 70° |
| 2026-05-06 04:01 | 38.63860 | -120.63605 | 27622 ft | 378 kts | 70° |
| 2026-05-06 04:01 | 38.64539 | -120.60352 | 27101 ft | 374 kts | 70° |
| 2026-05-06 04:02 | 38.65199 | -120.57190 | 26597 ft | 370 kts | 70° |
| 2026-05-06 04:02 | 38.65859 | -120.54023 | 26090 ft | 366 kts | 70° |
| 2026-05-06 04:02 | 38.66518 | -120.50850 | 25587 ft | 363 kts | 70° |
| 2026-05-06 04:02 | 38.67160 | -120.47755 | 25092 ft | 359 kts | 70° |
| 2026-05-06 04:03 | 38.67788 | -120.44717 | 24604 ft | 356 kts | 70° |
| 2026-05-06 04:03 | 38.68427 | -120.41641 | 24110 ft | 352 kts | 70° |
| 2026-05-06 04:03 | 38.69047 | -120.38656 | 23630 ft | 349 kts | 70° |
| 2026-05-06 04:03 | 38.69663 | -120.35667 | 23150 ft | 345 kts | 70° |
| 2026-05-06 04:04 | 38.70269 | -120.32709 | 22687 ft | 342 kts | 71° |
| 2026-05-06 04:04 | 38.70850 | -120.29878 | 22224 ft | 340 kts | 71° |
| 2026-05-06 04:04 | 38.71453 | -120.26936 | 21751 ft | 337 kts | 71° |
| 2026-05-06 04:04 | 38.72040 | -120.24068 | 21299 ft | 334 kts | 71° |
| 2026-05-06 04:05 | 38.72628 | -120.21191 | 20835 ft | 332 kts | 71° |
| 2026-05-06 04:05 | 38.73210 | -120.18345 | 20371 ft | 330 kts | 71° |
| 2026-05-06 04:05 | 38.73794 | -120.15482 | 19896 ft | 328 kts | 71° |
| 2026-05-06 04:05 | 38.74365 | -120.12678 | 19447 ft | 325 kts | 71° |
| 2026-05-06 04:06 | 38.74928 | -120.09902 | 18999 ft | 322 kts | 71° |
| 2026-05-06 04:06 | 38.75487 | -120.07143 | 18547 ft | 320 kts | 71° |
| 2026-05-06 04:06 | 38.76051 | -120.04362 | 18105 ft | 317 kts | 71° |
| 2026-05-06 04:06 | 38.76606 | -120.01624 | 17669 ft | 315 kts | 71° |
| 2026-05-06 04:07 | 38.77151 | -119.98930 | 17247 ft | 312 kts | 71° |
| 2026-05-06 04:07 | 38.77693 | -119.96252 | 16812 ft | 310 kts | 71° |
| 2026-05-06 04:07 | 38.78226 | -119.93611 | 16359 ft | 308 kts | 71° |
| 2026-05-06 04:07 | 38.78766 | -119.90932 | 15908 ft | 306 kts | 71° |
| 2026-05-06 04:08 | 38.79297 | -119.88300 | 15466 ft | 305 kts | 71° |
| 2026-05-06 04:08 | 38.79830 | -119.85656 | 14961 ft | 306 kts | 71° |
| 2026-05-06 04:08 | 38.80378 | -119.83033 | 14375 ft | 307 kts | 68° |
| 2026-05-06 04:08 | 38.81206 | -119.80553 | 14099 ft | 292 kts | 54° |
| 2026-05-06 04:09 | 38.82557 | -119.78741 | 14061 ft | 273 kts | 33° |
| 2026-05-06 04:09 | 38.84266 | -119.77634 | 13864 ft | 276 kts | 20° |
| 2026-05-06 04:09 | 38.86116 | -119.77029 | 13494 ft | 275 kts | 9° |
| 2026-05-06 04:09 | 38.88023 | -119.76910 | 13212 ft | 271 kts | 1° |
| 2026-05-06 04:10 | 38.89943 | -119.76981 | 13174 ft | 271 kts | 0° |
| 2026-05-06 04:10 | 38.91812 | -119.77047 | 13165 ft | 274 kts | 1° |
| 2026-05-06 04:10 | 38.93750 | -119.77074 | 13143 ft | 272 kts | 1° |
| 2026-05-06 04:10 | 38.95659 | -119.77076 | 12856 ft | 275 kts | 2° |
| 2026-05-06 04:11 | 38.97566 | -119.77068 | 12483 ft | 274 kts | 2° |
| 2026-05-06 04:11 | 38.99476 | -119.77059 | 12108 ft | 272 kts | 2° |
| 2026-05-06 04:11 | 39.01371 | -119.77052 | 11736 ft | 272 kts | 1° |
| 2026-05-06 04:11 | 39.03272 | -119.77048 | 11416 ft | 269 kts | 1° |
| 2026-05-06 04:12 | 39.05149 | -119.77048 | 11301 ft | 267 kts | 1° |
| 2026-05-06 04:12 | 39.07005 | -119.77046 | 11069 ft | 260 kts | 1° |
| 2026-05-06 04:12 | 39.08766 | -119.77045 | 11049 ft | 246 kts | 1° |
| 2026-05-06 04:12 | 39.10454 | -119.77042 | 11049 ft | 231 kts | 1° |
| 2026-05-06 04:13 | 39.12030 | -119.77040 | 10958 ft | 226 kts | 1° |
| 2026-05-06 04:13 | 39.13624 | -119.77036 | 10611 ft | 230 kts | 1° |
| 2026-05-06 04:13 | 39.15228 | -119.77030 | 10237 ft | 232 kts | 1° |
| 2026-05-06 04:13 | 39.16874 | -119.77023 | 9759 ft | 239 kts | 1° |
| 2026-05-06 04:14 | 39.18557 | -119.77014 | 9271 ft | 246 kts | 1° |
| 2026-05-06 04:14 | 39.20320 | -119.77007 | 8773 ft | 252 kts | 0° |
| 2026-05-06 04:14 | 39.22086 | -119.77004 | 8279 ft | 255 kts | 0° |
| 2026-05-06 04:14 | 39.23873 | -119.77000 | 7872 ft | 252 kts | 0° |
| 2026-05-06 04:15 | 39.25609 | -119.76995 | 7515 ft | 247 kts | 360° |
| 2026-05-06 04:15 | 39.27321 | -119.76993 | 7171 ft | 241 kts | 359° |
| 2026-05-06 04:15 | 39.28973 | -119.76993 | 7068 ft | 224 kts | 359° |
| 2026-05-06 04:15 | 39.30468 | -119.76992 | 7065 ft | 206 kts | 359° |
| 2026-05-06 04:16 | 39.31872 | -119.76990 | 7059 ft | 190 kts | 359° |
| 2026-05-06 04:16 | 39.33168 | -119.76981 | 7056 ft | 186 kts | 0° |
| 2026-05-06 04:16 | 39.34494 | -119.76929 | 6983 ft | 187 kts | 1° |
| 2026-05-06 04:16 | 39.35769 | -119.76855 | 6967 ft | 178 kts | 1° |
| 2026-05-06 04:17 | 39.37007 | -119.76784 | 6975 ft | 172 kts | 1° |
| 2026-05-06 04:17 | 39.38157 | -119.76717 | 6955 ft | 161 kts | 2° |
| 2026-05-06 04:17 | 39.39297 | -119.76643 | 6700 ft | 161 kts | 1° |
| 2026-05-06 04:17 | 39.40411 | -119.76574 | 6413 ft | 160 kts | 360° |
| 2026-05-06 04:18 | 39.41526 | -119.76561 | 6073 ft | 161 kts | 357° |
| 2026-05-06 04:18 | 39.42650 | -119.76606 | 5744 ft | 159 kts | 356° |
| 2026-05-06 04:18 | 39.43758 | -119.76638 | 5403 ft | 161 kts | 356° |
| 2026-05-06 04:18 | 39.44868 | -119.76659 | 5152 ft | 157 kts | 358° |
| 2026-05-06 04:19 | 39.45947 | -119.76663 | 4987 ft | 154 kts | 358° |
| 2026-05-06 04:19 | 39.47045 | -119.76666 | 4793 ft | 158 kts | 358° |
| 2026-05-06 04:19 | 39.48147 | -119.76670 | 4618 ft | 158 kts | 358° |
| 2026-05-06 04:19 | 39.49232 | -119.76677 | 4430 ft | 154 kts | 358° |
| 2026-05-06 04:20 | 39.50201 | -119.76681 | 4414 ft | 114 kts | 2° |
| 2026-05-06 04:20 | 39.50771 | -119.76676 | 4417 ft | 53 kts | 0° |
| 2026-05-06 04:20 | 39.51100 | -119.76675 | 4420 ft | 38 kts | 0° |
| 2026-05-06 04:20 | 39.51284 | -119.76675 | 4421 ft | 19 kts | 359° |
| 2026-05-06 04:21 | 39.51373 | -119.76757 | 4422 ft | 15 kts | 279° |
| 2026-05-06 04:21 | 39.51375 | -119.76799 | 4422 ft | 0 kts | 269° |
| 2026-05-06 04:21 | 39.51375 | -119.76814 | 4422 ft | 4 kts | 268° |
| 2026-05-06 04:22 | 39.51374 | -119.76888 | 4422 ft | 11 kts | 270° |
| 2026-05-06 04:22 | 39.51375 | -119.76991 | 4422 ft | 11 kts | 270° |
| 2026-05-06 04:22 | 39.51375 | -119.77092 | 4422 ft | 11 kts | 264° |
| 2026-05-06 04:23 | 39.51155 | -119.77151 | 4421 ft | 20 kts | 180° |
| 2026-05-06 04:23 | 39.51013 | -119.77151 | 4421 ft | 20 kts | 181° |
| 2026-05-06 04:23 | 39.50885 | -119.77152 | 4420 ft | 16 kts | 180° |
| 2026-05-06 04:23 | 39.50803 | -119.77189 | 4419 ft | 10 kts | 236° |
| 2026-05-06 04:24 | 39.50761 | -119.77235 | 4419 ft | 5 kts | 216° |
| 2026-05-06 04:24 | 39.50744 | -119.77251 | 4419 ft | 0 kts | 213° |